sensor_id;sensor_type;location;lat;lon;timestamp;P1;durP1;ratioP1;P2;durP2;ratioP2
10132;SDS011;5106;50.926;7.080;2022-12-05T00:01:13;17.43;;;12.03;;
10132;SDS011;5106;50.926;7.080;2022-12-05T00:03:56;15.50;;;11.10;;
10132;SDS011;5106;50.926;7.080;2022-12-05T00:06:24;15.13;;;10.93;;
10132;SDS011;5106;50.926;7.080;2022-12-05T00:08:51;17.83;;;11.87;;
10132;SDS011;5106;50.926;7.080;2022-12-05T00:11:21;16.53;;;11.40;;
10132;SDS011;5106;50.926;7.080;2022-12-05T00:13:49;15.47;;;10.70;;
10132;SDS011;5106;50.926;7.080;2022-12-05T00:16:17;17.57;;;11.57;;
10132;SDS011;5106;50.926;7.080;2022-12-05T00:18:44;15.67;;;11.33;;
10132;SDS011;5106;50.926;7.080;2022-12-05T00:21:11;17.80;;;12.07;;
10132;SDS011;5106;50.926;7.080;2022-12-05T00:23:41;15.93;;;11.20;;
10132;SDS011;5106;50.926;7.080;2022-12-05T00:26:08;17.80;;;11.73;;
10132;SDS011;5106;50.926;7.080;2022-12-05T00:28:34;19.60;;;12.23;;
10132;SDS011;5106;50.926;7.080;2022-12-05T00:31:07;17.93;;;12.53;;
10132;SDS011;5106;50.926;7.080;2022-12-05T00:33:34;17.07;;;11.87;;
10132;SDS011;5106;50.926;7.080;2022-12-05T00:36:01;18.77;;;12.03;;
10132;SDS011;5106;50.926;7.080;2022-12-05T00:38:28;17.33;;;12.07;;
10132;SDS011;5106;50.926;7.080;2022-12-05T00:40:54;16.43;;;11.33;;
10132;SDS011;5106;50.926;7.080;2022-12-05T00:43:19;16.77;;;11.77;;
10132;SDS011;5106;50.926;7.080;2022-12-05T00:45:45;17.10;;;12.10;;
10132;SDS011;5106;50.926;7.080;2022-12-05T00:48:10;19.10;;;12.47;;
10132;SDS011;5106;50.926;7.080;2022-12-05T00:50:36;16.03;;;11.60;;
10132;SDS011;5106;50.926;7.080;2022-12-05T00:53:01;18.50;;;13.07;;
10132;SDS011;5106;50.926;7.080;2022-12-05T00:55:27;16.80;;;11.73;;
10132;SDS011;5106;50.926;7.080;2022-12-05T00:57:52;18.93;;;13.33;;
10132;SDS011;5106;50.926;7.080;2022-12-05T01:00:18;18.60;;;12.40;;
10132;SDS011;5106;50.926;7.080;2022-12-05T01:02:44;18.13;;;12.20;;
10132;SDS011;5106;50.926;7.080;2022-12-05T01:05:10;18.07;;;12.67;;
10132;SDS011;5106;50.926;7.080;2022-12-05T01:07:35;19.67;;;13.40;;
10132;SDS011;5106;50.926;7.080;2022-12-05T01:10:01;20.27;;;13.37;;
10132;SDS011;5106;50.926;7.080;2022-12-05T01:12:27;19.67;;;13.17;;
10132;SDS011;5106;50.926;7.080;2022-12-05T01:14:53;19.23;;;13.27;;
10132;SDS011;5106;50.926;7.080;2022-12-05T01:17:18;21.63;;;13.43;;
10132;SDS011;5106;50.926;7.080;2022-12-05T01:19:44;18.77;;;13.10;;
10132;SDS011;5106;50.926;7.080;2022-12-05T01:22:09;18.67;;;13.37;;
10132;SDS011;5106;50.926;7.080;2022-12-05T01:24:35;19.90;;;13.63;;
10132;SDS011;5106;50.926;7.080;2022-12-05T01:27:01;18.13;;;12.57;;
10132;SDS011;5106;50.926;7.080;2022-12-05T01:29:26;18.40;;;12.90;;
10132;SDS011;5106;50.926;7.080;2022-12-05T01:31:52;20.17;;;12.87;;
10132;SDS011;5106;50.926;7.080;2022-12-05T01:34:18;20.80;;;13.53;;
10132;SDS011;5106;50.926;7.080;2022-12-05T01:36:45;20.00;;;13.10;;
10132;SDS011;5106;50.926;7.080;2022-12-05T01:39:11;21.40;;;12.90;;
10132;SDS011;5106;50.926;7.080;2022-12-05T01:41:39;19.90;;;13.47;;
10132;SDS011;5106;50.926;7.080;2022-12-05T01:46:53;19.33;;;13.33;;
10132;SDS011;5106;50.926;7.080;2022-12-05T01:49:20;20.00;;;12.77;;
10132;SDS011;5106;50.926;7.080;2022-12-05T01:51:49;18.57;;;12.67;;
10132;SDS011;5106;50.926;7.080;2022-12-05T01:54:18;19.23;;;13.20;;
10132;SDS011;5106;50.926;7.080;2022-12-05T01:56:50;20.83;;;13.90;;
10132;SDS011;5106;50.926;7.080;2022-12-05T01:59:19;21.33;;;14.03;;
10132;SDS011;5106;50.926;7.080;2022-12-05T02:01:47;18.43;;;13.07;;
10132;SDS011;5106;50.926;7.080;2022-12-05T02:04:13;17.47;;;12.33;;
10132;SDS011;5106;50.926;7.080;2022-12-05T02:06:39;18.03;;;12.57;;
10132;SDS011;5106;50.926;7.080;2022-12-05T02:09:05;21.33;;;14.43;;
10132;SDS011;5106;50.926;7.080;2022-12-05T02:11:31;18.13;;;12.40;;
10132;SDS011;5106;50.926;7.080;2022-12-05T02:24:15;20.23;;;12.80;;
10132;SDS011;5106;50.926;7.080;2022-12-05T02:43:45;18.77;;;12.40;;
10132;SDS011;5106;50.926;7.080;2022-12-05T02:46:29;17.37;;;12.40;;
10132;SDS011;5106;50.926;7.080;2022-12-05T02:49:00;19.77;;;12.80;;
10132;SDS011;5106;50.926;7.080;2022-12-05T02:51:37;17.93;;;12.17;;
10132;SDS011;5106;50.926;7.080;2022-12-05T02:54:18;17.57;;;11.87;;
10132;SDS011;5106;50.926;7.080;2022-12-05T02:56:48;20.47;;;13.13;;
10132;SDS011;5106;50.926;7.080;2022-12-05T02:59:16;17.37;;;11.73;;
10132;SDS011;5106;50.926;7.080;2022-12-05T03:01:43;16.57;;;11.13;;
10132;SDS011;5106;50.926;7.080;2022-12-05T03:04:10;15.00;;;11.00;;
10132;SDS011;5106;50.926;7.080;2022-12-05T03:06:41;15.93;;;10.80;;
10132;SDS011;5106;50.926;7.080;2022-12-05T03:09:12;16.00;;;11.10;;
10132;SDS011;5106;50.926;7.080;2022-12-05T03:11:52;15.67;;;10.57;;
10132;SDS011;5106;50.926;7.080;2022-12-05T03:14:24;14.97;;;10.33;;
10132;SDS011;5106;50.926;7.080;2022-12-05T03:16:54;15.63;;;11.10;;
10132;SDS011;5106;50.926;7.080;2022-12-05T03:19:26;15.07;;;10.77;;
10132;SDS011;5106;50.926;7.080;2022-12-05T03:24:24;14.93;;;10.73;;
10132;SDS011;5106;50.926;7.080;2022-12-05T03:27:01;16.60;;;11.10;;
10132;SDS011;5106;50.926;7.080;2022-12-05T03:29:42;14.80;;;10.60;;
10132;SDS011;5106;50.926;7.080;2022-12-05T03:35:26;16.77;;;10.90;;
10132;SDS011;5106;50.926;7.080;2022-12-05T03:45:57;15.63;;;11.17;;
10132;SDS011;5106;50.926;7.080;2022-12-05T03:48:34;17.13;;;11.43;;
10132;SDS011;5106;50.926;7.080;2022-12-05T03:51:03;15.77;;;10.70;;
10132;SDS011;5106;50.926;7.080;2022-12-05T03:53:37;16.63;;;11.27;;
10132;SDS011;5106;50.926;7.080;2022-12-05T03:56:50;16.17;;;10.73;;
10132;SDS011;5106;50.926;7.080;2022-12-05T03:59:13;15.67;;;10.17;;
10132;SDS011;5106;50.926;7.080;2022-12-05T04:01:56;14.43;;;10.57;;
10132;SDS011;5106;50.926;7.080;2022-12-05T04:04:27;15.23;;;11.03;;
10132;SDS011;5106;50.926;7.080;2022-12-05T04:06:59;14.07;;;10.17;;
10132;SDS011;5106;50.926;7.080;2022-12-05T04:09:30;14.33;;;10.13;;
10132;SDS011;5106;50.926;7.080;2022-12-05T04:12:05;15.80;;;10.70;;
10132;SDS011;5106;50.926;7.080;2022-12-05T04:14:43;14.47;;;9.90;;
10132;SDS011;5106;50.926;7.080;2022-12-05T04:22:44;13.93;;;9.90;;
10132;SDS011;5106;50.926;7.080;2022-12-05T04:25:11;13.97;;;10.30;;
10132;SDS011;5106;50.926;7.080;2022-12-05T04:33:51;15.00;;;9.90;;
10132;SDS011;5106;50.926;7.080;2022-12-05T04:41:39;13.60;;;9.83;;
10132;SDS011;5106;50.926;7.080;2022-12-05T04:44:16;14.67;;;10.17;;
10132;SDS011;5106;50.926;7.080;2022-12-05T04:46:44;13.60;;;9.93;;
10132;SDS011;5106;50.926;7.080;2022-12-05T04:49:11;15.60;;;10.43;;
10132;SDS011;5106;50.926;7.080;2022-12-05T04:51:44;16.27;;;10.70;;
10132;SDS011;5106;50.926;7.080;2022-12-05T04:54:17;14.60;;;9.90;;
10132;SDS011;5106;50.926;7.080;2022-12-05T04:56:46;16.27;;;11.00;;
10132;SDS011;5106;50.926;7.080;2022-12-05T04:59:16;14.70;;;10.07;;
10132;SDS011;5106;50.926;7.080;2022-12-05T05:01:44;14.57;;;9.63;;
10132;SDS011;5106;50.926;7.080;2022-12-05T05:04:17;14.37;;;10.10;;
10132;SDS011;5106;50.926;7.080;2022-12-05T05:06:51;15.50;;;10.43;;
10132;SDS011;5106;50.926;7.080;2022-12-05T05:09:17;15.33;;;10.00;;
10132;SDS011;5106;50.926;7.080;2022-12-05T05:11:42;13.97;;;9.80;;
10132;SDS011;5106;50.926;7.080;2022-12-05T05:14:08;14.57;;;9.43;;
10132;SDS011;5106;50.926;7.080;2022-12-05T05:16:39;14.70;;;10.10;;
10132;SDS011;5106;50.926;7.080;2022-12-05T05:19:07;15.53;;;9.83;;
10132;SDS011;5106;50.926;7.080;2022-12-05T05:21:34;15.70;;;11.07;;
10132;SDS011;5106;50.926;7.080;2022-12-05T05:24:01;14.50;;;9.80;;
10132;SDS011;5106;50.926;7.080;2022-12-05T05:26:28;13.20;;;9.13;;
10132;SDS011;5106;50.926;7.080;2022-12-05T05:28:55;13.97;;;9.70;;
10132;SDS011;5106;50.926;7.080;2022-12-05T05:31:22;14.70;;;9.90;;
10132;SDS011;5106;50.926;7.080;2022-12-05T05:33:51;16.67;;;10.33;;
10132;SDS011;5106;50.926;7.080;2022-12-05T05:36:18;12.63;;;9.57;;
10132;SDS011;5106;50.926;7.080;2022-12-05T05:38:46;15.60;;;9.50;;
10132;SDS011;5106;50.926;7.080;2022-12-05T05:41:14;13.03;;;9.63;;
10132;SDS011;5106;50.926;7.080;2022-12-05T05:43:42;13.97;;;10.20;;
10132;SDS011;5106;50.926;7.080;2022-12-05T05:46:08;14.43;;;9.83;;
10132;SDS011;5106;50.926;7.080;2022-12-05T05:48:34;14.13;;;10.47;;
10132;SDS011;5106;50.926;7.080;2022-12-05T05:51:01;14.77;;;9.90;;
10132;SDS011;5106;50.926;7.080;2022-12-05T05:53:27;13.90;;;9.63;;
10132;SDS011;5106;50.926;7.080;2022-12-05T05:55:52;14.90;;;10.23;;
10132;SDS011;5106;50.926;7.080;2022-12-05T05:58:18;15.27;;;10.33;;
10132;SDS011;5106;50.926;7.080;2022-12-05T06:00:43;14.27;;;9.97;;
10132;SDS011;5106;50.926;7.080;2022-12-05T06:03:09;14.40;;;9.63;;
10132;SDS011;5106;50.926;7.080;2022-12-05T06:05:35;15.10;;;9.70;;
10132;SDS011;5106;50.926;7.080;2022-12-05T06:08:00;16.57;;;10.30;;
10132;SDS011;5106;50.926;7.080;2022-12-05T06:10:26;16.73;;;10.13;;
10132;SDS011;5106;50.926;7.080;2022-12-05T06:12:53;14.90;;;9.80;;
10132;SDS011;5106;50.926;7.080;2022-12-05T06:15:19;11.97;;;9.60;;
10132;SDS011;5106;50.926;7.080;2022-12-05T06:17:45;15.03;;;10.77;;
10132;SDS011;5106;50.926;7.080;2022-12-05T06:20:11;13.50;;;9.60;;
10132;SDS011;5106;50.926;7.080;2022-12-05T06:22:37;14.77;;;9.70;;
10132;SDS011;5106;50.926;7.080;2022-12-05T06:25:03;12.33;;;9.33;;
10132;SDS011;5106;50.926;7.080;2022-12-05T06:27:29;13.53;;;9.37;;
10132;SDS011;5106;50.926;7.080;2022-12-05T06:29:57;14.57;;;10.23;;
10132;SDS011;5106;50.926;7.080;2022-12-05T06:32:23;13.47;;;9.23;;
10132;SDS011;5106;50.926;7.080;2022-12-05T06:34:49;18.13;;;10.47;;
10132;SDS011;5106;50.926;7.080;2022-12-05T06:37:14;12.97;;;9.60;;
10132;SDS011;5106;50.926;7.080;2022-12-05T06:39:40;13.27;;;9.53;;
10132;SDS011;5106;50.926;7.080;2022-12-05T06:42:05;14.13;;;9.50;;
10132;SDS011;5106;50.926;7.080;2022-12-05T06:44:31;12.43;;;9.17;;
10132;SDS011;5106;50.926;7.080;2022-12-05T06:46:56;13.10;;;9.43;;
10132;SDS011;5106;50.926;7.080;2022-12-05T06:49:22;12.73;;;10.07;;
10132;SDS011;5106;50.926;7.080;2022-12-05T06:51:51;12.27;;;9.40;;
10132;SDS011;5106;50.926;7.080;2022-12-05T06:54:17;14.27;;;9.77;;
10132;SDS011;5106;50.926;7.080;2022-12-05T06:56:43;13.00;;;8.97;;
10132;SDS011;5106;50.926;7.080;2022-12-05T06:59:09;12.93;;;9.40;;
10132;SDS011;5106;50.926;7.080;2022-12-05T07:01:35;12.90;;;9.53;;
10132;SDS011;5106;50.926;7.080;2022-12-05T07:04:18;13.27;;;9.30;;
10132;SDS011;5106;50.926;7.080;2022-12-05T07:06:47;11.57;;;8.77;;
10132;SDS011;5106;50.926;7.080;2022-12-05T07:09:14;13.30;;;9.30;;
10132;SDS011;5106;50.926;7.080;2022-12-05T07:11:40;14.20;;;9.93;;
10132;SDS011;5106;50.926;7.080;2022-12-05T07:14:06;13.90;;;9.77;;
10132;SDS011;5106;50.926;7.080;2022-12-05T07:16:33;12.50;;;9.63;;
10132;SDS011;5106;50.926;7.080;2022-12-05T07:18:59;13.93;;;10.23;;
10132;SDS011;5106;50.926;7.080;2022-12-05T07:21:25;13.53;;;9.97;;
10132;SDS011;5106;50.926;7.080;2022-12-05T07:23:51;14.57;;;10.10;;
10132;SDS011;5106;50.926;7.080;2022-12-05T07:26:21;14.27;;;10.07;;
10132;SDS011;5106;50.926;7.080;2022-12-05T07:28:47;11.77;;;9.43;;
10132;SDS011;5106;50.926;7.080;2022-12-05T07:31:16;14.57;;;10.37;;
10132;SDS011;5106;50.926;7.080;2022-12-05T07:33:43;15.40;;;10.67;;
10132;SDS011;5106;50.926;7.080;2022-12-05T07:36:14;14.90;;;10.57;;
10132;SDS011;5106;50.926;7.080;2022-12-05T07:38:41;14.37;;;10.07;;
10132;SDS011;5106;50.926;7.080;2022-12-05T07:41:09;14.70;;;10.87;;
10132;SDS011;5106;50.926;7.080;2022-12-05T07:43:40;15.90;;;10.53;;
10132;SDS011;5106;50.926;7.080;2022-12-05T07:46:06;15.30;;;10.17;;
10132;SDS011;5106;50.926;7.080;2022-12-05T07:48:33;14.93;;;10.90;;
10132;SDS011;5106;50.926;7.080;2022-12-05T07:51:02;15.43;;;10.73;;
10132;SDS011;5106;50.926;7.080;2022-12-05T07:53:30;15.53;;;10.63;;
10132;SDS011;5106;50.926;7.080;2022-12-05T07:55:59;14.47;;;10.67;;
10132;SDS011;5106;50.926;7.080;2022-12-05T07:58:29;15.17;;;10.83;;
10132;SDS011;5106;50.926;7.080;2022-12-05T08:00:56;13.97;;;10.27;;
10132;SDS011;5106;50.926;7.080;2022-12-05T08:03:22;13.60;;;9.97;;
10132;SDS011;5106;50.926;7.080;2022-12-05T08:05:48;16.77;;;10.87;;
10132;SDS011;5106;50.926;7.080;2022-12-05T08:08:14;15.67;;;11.07;;
10132;SDS011;5106;50.926;7.080;2022-12-05T08:10:40;15.83;;;11.03;;
10132;SDS011;5106;50.926;7.080;2022-12-05T08:13:05;15.60;;;10.97;;
10132;SDS011;5106;50.926;7.080;2022-12-05T08:15:33;15.63;;;11.00;;
10132;SDS011;5106;50.926;7.080;2022-12-05T08:18:00;15.87;;;10.83;;
10132;SDS011;5106;50.926;7.080;2022-12-05T08:20:26;17.20;;;11.50;;
10132;SDS011;5106;50.926;7.080;2022-12-05T08:22:51;16.13;;;11.47;;
10132;SDS011;5106;50.926;7.080;2022-12-05T08:25:18;17.43;;;11.50;;
10132;SDS011;5106;50.926;7.080;2022-12-05T08:27:44;18.67;;;11.50;;
10132;SDS011;5106;50.926;7.080;2022-12-05T08:30:09;18.13;;;12.13;;
10132;SDS011;5106;50.926;7.080;2022-12-05T08:32:35;18.37;;;12.97;;
10132;SDS011;5106;50.926;7.080;2022-12-05T08:35:00;17.07;;;11.53;;
10132;SDS011;5106;50.926;7.080;2022-12-05T08:37:26;20.27;;;13.50;;
10132;SDS011;5106;50.926;7.080;2022-12-05T08:39:52;20.93;;;13.40;;
10132;SDS011;5106;50.926;7.080;2022-12-05T08:42:17;19.60;;;12.97;;
10132;SDS011;5106;50.926;7.080;2022-12-05T08:44:43;19.60;;;13.10;;
10132;SDS011;5106;50.926;7.080;2022-12-05T08:47:08;18.43;;;12.50;;
10132;SDS011;5106;50.926;7.080;2022-12-05T08:49:34;19.00;;;13.37;;
10132;SDS011;5106;50.926;7.080;2022-12-05T08:51:59;20.73;;;13.27;;
10132;SDS011;5106;50.926;7.080;2022-12-05T08:54:25;19.80;;;13.03;;
10132;SDS011;5106;50.926;7.080;2022-12-05T08:56:51;21.80;;;13.13;;
10132;SDS011;5106;50.926;7.080;2022-12-05T08:59:16;21.17;;;13.63;;
10132;SDS011;5106;50.926;7.080;2022-12-05T09:01:43;17.87;;;12.30;;
10132;SDS011;5106;50.926;7.080;2022-12-05T09:04:08;21.30;;;12.93;;
10132;SDS011;5106;50.926;7.080;2022-12-05T09:06:34;19.67;;;12.43;;
10132;SDS011;5106;50.926;7.080;2022-12-05T09:09:01;18.47;;;12.63;;
10132;SDS011;5106;50.926;7.080;2022-12-05T09:11:30;17.23;;;11.77;;
10132;SDS011;5106;50.926;7.080;2022-12-05T09:13:58;17.77;;;11.67;;
10132;SDS011;5106;50.926;7.080;2022-12-05T09:16:28;16.27;;;11.07;;
10132;SDS011;5106;50.926;7.080;2022-12-05T09:18:57;17.10;;;11.07;;
10132;SDS011;5106;50.926;7.080;2022-12-05T09:21:24;14.57;;;10.93;;
10132;SDS011;5106;50.926;7.080;2022-12-05T09:23:52;15.13;;;10.77;;
10132;SDS011;5106;50.926;7.080;2022-12-05T09:26:22;18.00;;;11.13;;
10132;SDS011;5106;50.926;7.080;2022-12-05T09:28:49;16.53;;;11.73;;
10132;SDS011;5106;50.926;7.080;2022-12-05T09:31:16;18.83;;;11.93;;
10132;SDS011;5106;50.926;7.080;2022-12-05T09:33:44;16.27;;;11.47;;
10132;SDS011;5106;50.926;7.080;2022-12-05T09:36:14;19.07;;;12.47;;
10132;SDS011;5106;50.926;7.080;2022-12-05T09:38:50;17.20;;;12.40;;
10132;SDS011;5106;50.926;7.080;2022-12-05T09:45:01;17.67;;;11.93;;
10132;SDS011;5106;50.926;7.080;2022-12-05T09:50:08;17.90;;;11.53;;
10132;SDS011;5106;50.926;7.080;2022-12-05T09:52:38;20.00;;;12.33;;
10132;SDS011;5106;50.926;7.080;2022-12-05T09:55:15;18.67;;;12.40;;
10132;SDS011;5106;50.926;7.080;2022-12-05T09:57:53;17.03;;;11.60;;
10132;SDS011;5106;50.926;7.080;2022-12-05T10:00:22;16.70;;;11.63;;
10132;SDS011;5106;50.926;7.080;2022-12-05T10:08:27;20.57;;;12.43;;
10132;SDS011;5106;50.926;7.080;2022-12-05T10:14:14;18.40;;;12.47;;
10132;SDS011;5106;50.926;7.080;2022-12-05T10:16:53;17.23;;;11.67;;
10132;SDS011;5106;50.926;7.080;2022-12-05T10:19:33;17.40;;;12.10;;
10132;SDS011;5106;50.926;7.080;2022-12-05T10:22:07;17.53;;;11.97;;
10132;SDS011;5106;50.926;7.080;2022-12-05T10:24:42;16.60;;;12.27;;
10132;SDS011;5106;50.926;7.080;2022-12-05T10:27:15;17.97;;;12.83;;
10132;SDS011;5106;50.926;7.080;2022-12-05T10:29:49;17.70;;;12.13;;
10132;SDS011;5106;50.926;7.080;2022-12-05T10:33:02;19.03;;;12.77;;
10132;SDS011;5106;50.926;7.080;2022-12-05T10:35:15;19.10;;;12.87;;
10132;SDS011;5106;50.926;7.080;2022-12-05T10:37:54;17.83;;;12.83;;
10132;SDS011;5106;50.926;7.080;2022-12-05T10:40:22;18.87;;;12.90;;
10132;SDS011;5106;50.926;7.080;2022-12-05T10:42:58;17.50;;;11.93;;
10132;SDS011;5106;50.926;7.080;2022-12-05T10:45:23;18.00;;;12.43;;
10132;SDS011;5106;50.926;7.080;2022-12-05T10:47:53;19.27;;;13.17;;
10132;SDS011;5106;50.926;7.080;2022-12-05T10:50:21;19.53;;;14.03;;
10132;SDS011;5106;50.926;7.080;2022-12-05T10:52:48;19.43;;;12.97;;
10132;SDS011;5106;50.926;7.080;2022-12-05T10:55:15;18.17;;;13.40;;
10132;SDS011;5106;50.926;7.080;2022-12-05T10:57:43;21.30;;;14.17;;
10132;SDS011;5106;50.926;7.080;2022-12-05T11:00:15;20.30;;;14.17;;
10132;SDS011;5106;50.926;7.080;2022-12-05T11:02:43;20.70;;;15.10;;
10132;SDS011;5106;50.926;7.080;2022-12-05T11:05:12;25.33;;;15.07;;
10132;SDS011;5106;50.926;7.080;2022-12-05T11:07:45;23.10;;;15.33;;
10132;SDS011;5106;50.926;7.080;2022-12-05T11:10:20;23.13;;;15.27;;
10132;SDS011;5106;50.926;7.080;2022-12-05T11:12:49;23.40;;;16.60;;
10132;SDS011;5106;50.926;7.080;2022-12-05T11:17:43;25.00;;;17.13;;
10132;SDS011;5106;50.926;7.080;2022-12-05T11:22:45;23.67;;;16.20;;
10132;SDS011;5106;50.926;7.080;2022-12-05T11:25:30;25.43;;;16.67;;
10132;SDS011;5106;50.926;7.080;2022-12-05T11:27:58;24.83;;;16.50;;
10132;SDS011;5106;50.926;7.080;2022-12-05T11:30:26;22.47;;;15.93;;
10132;SDS011;5106;50.926;7.080;2022-12-05T11:33:17;21.17;;;15.57;;
10132;SDS011;5106;50.926;7.080;2022-12-05T11:35:45;22.13;;;15.30;;
10132;SDS011;5106;50.926;7.080;2022-12-05T11:38:11;24.50;;;16.43;;
10132;SDS011;5106;50.926;7.080;2022-12-05T11:56:53;25.67;;;16.93;;
10132;SDS011;5106;50.926;7.080;2022-12-05T12:16:18;19.73;;;15.40;;
10132;SDS011;5106;50.926;7.080;2022-12-05T12:19:21;19.03;;;15.17;;
10132;SDS011;5106;50.926;7.080;2022-12-05T12:22:11;18.60;;;13.63;;
10132;SDS011;5106;50.926;7.080;2022-12-05T12:36:49;11.97;;;10.27;;
10132;SDS011;5106;50.926;7.080;2022-12-05T12:42:18;12.53;;;9.70;;
10132;SDS011;5106;50.926;7.080;2022-12-05T12:47:46;14.60;;;10.97;;
10132;SDS011;5106;50.926;7.080;2022-12-05T12:50:24;15.97;;;11.20;;
10132;SDS011;5106;50.926;7.080;2022-12-05T12:55:43;15.00;;;11.37;;
10132;SDS011;5106;50.926;7.080;2022-12-05T13:04:07;13.67;;;11.10;;
10132;SDS011;5106;50.926;7.080;2022-12-05T13:06:54;15.03;;;12.07;;
10132;SDS011;5106;50.926;7.080;2022-12-05T13:11:59;15.50;;;12.53;;
10132;SDS011;5106;50.926;7.080;2022-12-05T13:14:30;16.10;;;12.50;;
10132;SDS011;5106;50.926;7.080;2022-12-05T13:16:59;14.33;;;12.23;;
10132;SDS011;5106;50.926;7.080;2022-12-05T13:19:27;16.73;;;12.50;;
10132;SDS011;5106;50.926;7.080;2022-12-05T13:22:02;16.50;;;13.33;;
10132;SDS011;5106;50.926;7.080;2022-12-05T13:24:29;18.37;;;13.50;;
10132;SDS011;5106;50.926;7.080;2022-12-05T13:26:59;16.93;;;13.90;;
10132;SDS011;5106;50.926;7.080;2022-12-05T13:29:32;15.97;;;13.37;;
10132;SDS011;5106;50.926;7.080;2022-12-05T13:32:03;15.37;;;12.77;;
10132;SDS011;5106;50.926;7.080;2022-12-05T13:34:43;18.10;;;14.37;;
10132;SDS011;5106;50.926;7.080;2022-12-05T13:37:32;16.70;;;13.57;;
10132;SDS011;5106;50.926;7.080;2022-12-05T13:43:12;17.07;;;12.70;;
10132;SDS011;5106;50.926;7.080;2022-12-05T13:45:40;15.97;;;13.10;;
10132;SDS011;5106;50.926;7.080;2022-12-05T13:58:43;13.90;;;11.10;;
10132;SDS011;5106;50.926;7.080;2022-12-05T14:04:20;12.80;;;10.07;;
10132;SDS011;5106;50.926;7.080;2022-12-05T14:17:19;12.33;;;9.00;;
10132;SDS011;5106;50.926;7.080;2022-12-05T14:37:58;11.77;;;9.60;;
10132;SDS011;5106;50.926;7.080;2022-12-05T14:45:43;13.87;;;10.73;;
10132;SDS011;5106;50.926;7.080;2022-12-05T14:53:54;13.97;;;11.17;;
10132;SDS011;5106;50.926;7.080;2022-12-05T14:56:49;12.47;;;9.93;;
10132;SDS011;5106;50.926;7.080;2022-12-05T14:59:30;13.03;;;9.97;;
10132;SDS011;5106;50.926;7.080;2022-12-05T15:02:00;11.97;;;9.90;;
10132;SDS011;5106;50.926;7.080;2022-12-05T15:04:30;11.57;;;9.33;;
10132;SDS011;5106;50.926;7.080;2022-12-05T15:07:18;11.77;;;9.17;;
10132;SDS011;5106;50.926;7.080;2022-12-05T15:15:02;13.27;;;10.77;;
10132;SDS011;5106;50.926;7.080;2022-12-05T15:20:17;15.03;;;12.07;;
10132;SDS011;5106;50.926;7.080;2022-12-05T15:26:01;16.10;;;12.30;;
10132;SDS011;5106;50.926;7.080;2022-12-05T15:28:27;15.80;;;12.80;;
10132;SDS011;5106;50.926;7.080;2022-12-05T15:30:53;17.13;;;12.47;;
10132;SDS011;5106;50.926;7.080;2022-12-05T15:33:20;17.63;;;12.43;;
10132;SDS011;5106;50.926;7.080;2022-12-05T15:35:48;15.37;;;11.80;;
10132;SDS011;5106;50.926;7.080;2022-12-05T15:38:18;15.17;;;11.80;;
10132;SDS011;5106;50.926;7.080;2022-12-05T15:40:51;15.23;;;11.20;;
10132;SDS011;5106;50.926;7.080;2022-12-05T15:43:34;12.93;;;10.83;;
10132;SDS011;5106;50.926;7.080;2022-12-05T15:48:47;13.33;;;10.33;;
10132;SDS011;5106;50.926;7.080;2022-12-05T15:51:14;14.30;;;11.10;;
10132;SDS011;5106;50.926;7.080;2022-12-05T15:53:42;13.93;;;10.83;;
10132;SDS011;5106;50.926;7.080;2022-12-05T15:59:23;14.23;;;10.97;;
10132;SDS011;5106;50.926;7.080;2022-12-05T16:02:00;12.97;;;10.20;;
10132;SDS011;5106;50.926;7.080;2022-12-05T16:04:38;13.43;;;11.00;;
10132;SDS011;5106;50.926;7.080;2022-12-05T16:07:12;13.50;;;10.10;;
10132;SDS011;5106;50.926;7.080;2022-12-05T16:09:40;13.63;;;9.30;;
10132;SDS011;5106;50.926;7.080;2022-12-05T16:14:52;11.73;;;9.37;;
10132;SDS011;5106;50.926;7.080;2022-12-05T16:17:21;12.53;;;9.13;;
10132;SDS011;5106;50.926;7.080;2022-12-05T16:19:46;10.90;;;9.00;;
10132;SDS011;5106;50.926;7.080;2022-12-05T16:24:42;11.27;;;9.33;;
10132;SDS011;5106;50.926;7.080;2022-12-05T16:27:22;13.73;;;9.83;;
10132;SDS011;5106;50.926;7.080;2022-12-05T16:30:12;11.57;;;10.07;;
10132;SDS011;5106;50.926;7.080;2022-12-05T16:32:41;13.47;;;10.00;;
10132;SDS011;5106;50.926;7.080;2022-12-05T16:35:27;12.27;;;10.47;;
10132;SDS011;5106;50.926;7.080;2022-12-05T16:38:03;13.00;;;10.53;;
10132;SDS011;5106;50.926;7.080;2022-12-05T16:43:22;12.20;;;9.87;;
10132;SDS011;5106;50.926;7.080;2022-12-05T16:45:52;10.97;;;9.17;;
10132;SDS011;5106;50.926;7.080;2022-12-05T16:48:21;9.93;;;8.43;;
10132;SDS011;5106;50.926;7.080;2022-12-05T16:50:52;10.40;;;8.90;;
10132;SDS011;5106;50.926;7.080;2022-12-05T16:53:50;11.27;;;9.00;;
10132;SDS011;5106;50.926;7.080;2022-12-05T16:56:19;11.27;;;9.03;;
10132;SDS011;5106;50.926;7.080;2022-12-05T16:58:48;11.43;;;9.23;;
10132;SDS011;5106;50.926;7.080;2022-12-05T17:01:18;10.93;;;9.47;;
10132;SDS011;5106;50.926;7.080;2022-12-05T17:03:45;12.43;;;10.00;;
10132;SDS011;5106;50.926;7.080;2022-12-05T17:06:11;10.63;;;8.93;;
10132;SDS011;5106;50.926;7.080;2022-12-05T17:08:38;10.30;;;9.00;;
10132;SDS011;5106;50.926;7.080;2022-12-05T17:11:04;12.50;;;9.43;;
10132;SDS011;5106;50.926;7.080;2022-12-05T17:13:38;12.43;;;9.50;;
10132;SDS011;5106;50.926;7.080;2022-12-05T17:16:04;12.10;;;9.37;;
10132;SDS011;5106;50.926;7.080;2022-12-05T17:18:29;11.07;;;9.33;;
10132;SDS011;5106;50.926;7.080;2022-12-05T17:20:55;11.30;;;9.40;;
10132;SDS011;5106;50.926;7.080;2022-12-05T17:23:21;9.73;;;8.47;;
10132;SDS011;5106;50.926;7.080;2022-12-05T17:25:48;10.30;;;8.30;;
10132;SDS011;5106;50.926;7.080;2022-12-05T17:28:21;11.30;;;8.97;;
10132;SDS011;5106;50.926;7.080;2022-12-05T17:30:47;12.07;;;10.30;;
10132;SDS011;5106;50.926;7.080;2022-12-05T17:33:14;11.70;;;9.37;;
10132;SDS011;5106;50.926;7.080;2022-12-05T17:35:41;11.77;;;9.53;;
10132;SDS011;5106;50.926;7.080;2022-12-05T17:38:07;10.70;;;8.67;;
10132;SDS011;5106;50.926;7.080;2022-12-05T17:40:35;10.33;;;8.43;;
10132;SDS011;5106;50.926;7.080;2022-12-05T17:43:01;11.43;;;9.53;;
10132;SDS011;5106;50.926;7.080;2022-12-05T17:45:28;11.83;;;9.37;;
10132;SDS011;5106;50.926;7.080;2022-12-05T17:47:54;11.63;;;8.77;;
10132;SDS011;5106;50.926;7.080;2022-12-05T17:50:20;9.77;;;8.60;;
10132;SDS011;5106;50.926;7.080;2022-12-05T17:52:48;11.00;;;8.67;;
10132;SDS011;5106;50.926;7.080;2022-12-05T17:55:15;10.23;;;8.17;;
10132;SDS011;5106;50.926;7.080;2022-12-05T17:57:44;10.93;;;8.37;;
10132;SDS011;5106;50.926;7.080;2022-12-05T18:00:10;9.93;;;8.50;;
10132;SDS011;5106;50.926;7.080;2022-12-05T18:02:38;10.50;;;8.23;;
10132;SDS011;5106;50.926;7.080;2022-12-05T18:05:04;10.53;;;8.60;;
10132;SDS011;5106;50.926;7.080;2022-12-05T18:07:30;10.77;;;8.47;;
10132;SDS011;5106;50.926;7.080;2022-12-05T18:09:56;10.10;;;8.43;;
10132;SDS011;5106;50.926;7.080;2022-12-05T18:12:21;11.10;;;8.80;;
10132;SDS011;5106;50.926;7.080;2022-12-05T18:14:47;9.93;;;8.50;;
10132;SDS011;5106;50.926;7.080;2022-12-05T18:17:12;9.97;;;8.03;;
10132;SDS011;5106;50.926;7.080;2022-12-05T18:19:38;11.20;;;8.20;;
10132;SDS011;5106;50.926;7.080;2022-12-05T18:22:03;9.63;;;7.97;;
10132;SDS011;5106;50.926;7.080;2022-12-05T18:24:29;8.70;;;7.27;;
10132;SDS011;5106;50.926;7.080;2022-12-05T18:26:55;9.47;;;8.23;;
10132;SDS011;5106;50.926;7.080;2022-12-05T18:29:23;10.10;;;8.07;;
10132;SDS011;5106;50.926;7.080;2022-12-05T18:31:49;10.77;;;7.83;;
10132;SDS011;5106;50.926;7.080;2022-12-05T18:34:15;10.17;;;8.03;;
10132;SDS011;5106;50.926;7.080;2022-12-05T18:36:41;9.10;;;7.47;;